Lordsburg, New Mexico
Current Conditions -  °F | °C
As of 10:35 AM on Wednesday 26 Nov 2014 (Local Time) from KLSB Reporting Station
Clear Clear  
Wind Chill: 48°   Ceiling: Unl
Heat Index: 48°   Visibility: 10mi
Dew Point:   Wind: 3mph
Humidity: 20%   Direction: 350°N
Pressure: 30.39"   Gusts: NA
Location:  32.35°N, 108.71°W
Report Text: KLSB 261735Z AUTO 35003KT 10SM CLR 09/M13 A3039 RMK AO2
Loading
Personal Weather Stations






























Interactive Weather Map New forecast layout! Learn more

10-Day Weather Forecast

Advertisements
Track Severe Weather on mobile